Arklow Freedom — EIEX9 — position and weather

sailwx.info

Track history (hours):
 
Tides and Currents Weather Stations Pressure Air Temp Water Temp Dewpoint Dewpoint Depression Visibility Wind Speed Wind Dir Waves Ship Positions

Arklow Freedom

Last reported at 2017-Dec-16 15:49 UTC. Time now 2017-Dec-18 11:18 UTC.
Position N 56°28' W 005°38'.

Length 90 m; draft 6.4 m.

Type: Cargo ship. MMSI: 250001396.

Date/timePositionNaut miles runAvg speedWind from/ knotsBaromVisibWave heightAir tempDewpointWater temp
2017-Dec-16 15:49N 56°28' W 005°38'4311.1
2017-Dec-16 11:55N 55°47' W 006°03'511.4
2017-Dec-16 11:30N 55°43' W 005°58'611.3
2017-Dec-16 11:00N 55°37' W 005°56'611.4
2017-Dec-16 10:30N 55°32' W 005°55'510.8
2017-Dec-16 10:00N 55°26' W 005°54'5 9.9
2017-Dec-16 09:30N 55°21' W 005°53'4 8.6
2017-Dec-16 09:00N 55°17' W 005°53'4 7.6
2017-Dec-16 08:30N 55°14' W 005°50'4 7.7
2017-Dec-16 07:59N 55°10' W 005°47'20 8.4
2017-Dec-16 05:34N 54°51' W 005°33'0 9.3
2017-Dec-16 05:30N 54°51' W 005°32'5 9.5
2017-Dec-16 05:00N 54°46' W 005°29'5 9.7
2017-Dec-16 04:30N 54°42' W 005°26'510.3
2017-Dec-16 04:00N 54°37' W 005°22'510.7
2017-Dec-16 03:30N 54°32' W 005°20'511.0
2017-Dec-16 03:00N 54°27' W 005°20'611.1
2017-Dec-16 02:30N 54°21' W 005°22'611.0
2017-Dec-16 02:00N 54°16' W 005°25'510.8
2017-Dec-16 01:30N 54°11' W 005°28'510.7
2017-Dec-16 01:00N 54°06' W 005°32'69 1.5
2017-Dec-14 02:23N 53°23' W 003°59'3 6.6
2017-Dec-14 02:00N 53°23' W 003°55'3 5.7
2017-Dec-14 01:30N 53°24' W 003°50'3 5.6
2017-Dec-14 01:00N 53°24' W 003°46'3 5.6
2017-Dec-14 00:30N 53°24' W 003°41'3 5.4
2017-Dec-14 00:00N 53°24' W 003°37'3 6.0
2017-Dec-13 23:30N 53°25' W 003°32'4 7.6
2017-Dec-13 23:00N 53°27' W 003°26'4 8.4
2017-Dec-13 22:30N 53°31' W 003°22'4 7.5
2017-Dec-13 22:00N 53°31' W 003°16'4 7.5
2017-Dec-13 21:30N 53°32' W 003°10'5 9.3
2017-Dec-13 21:00N 53°29' W 003°04'511.0
2017-Dec-13 20:30N 53°24' W 002°60'4 8.5
2017-Dec-13 19:59N 53°21' W 002°54'0 0.3
2017-Dec-13 19:29N 53°21' W 002°54'0 0.0
2017-Dec-13 18:59N 53°21' W 002°54'0 0.0
2017-Dec-13 18:29N 53°21' W 002°54'0 0.0
2017-Dec-13 17:59N 53°21' W 002°54'0 0.0
2017-Dec-13 17:23N 53°21' W 002°54'0 0.0
2017-Dec-13 16:56N 53°21' W 002°54'0 0.0
2017-Dec-13 16:26N 53°21' W 002°54'0 0.0
2017-Dec-13 15:59N 53°21' W 002°54'0 0.0
2017-Dec-13 15:29N 53°21' W 002°54'0 0.0
2017-Dec-13 14:59N 53°21' W 002°54'0 0.0
2017-Dec-13 14:26N 53°21' W 002°54'0 0.0
2017-Dec-13 13:59N 53°21' W 002°54'0 0.0
2017-Dec-13 13:29N 53°21' W 002°54'0 0.0
2017-Dec-13 12:59N 53°21' W 002°54'0 0.0
2017-Dec-13 12:23N 53°21' W 002°54'0 0.0
2017-Dec-13 11:59N 53°21' W 002°54'0 0.0
2017-Dec-13 11:26N 53°21' W 002°54'0 0.0
2017-Dec-13 10:56N 53°21' W 002°54'0 0.0
2017-Dec-13 10:29N 53°21' W 002°54'0 0.0
2017-Dec-13 09:59N 53°21' W 002°54'0 0.0
2017-Dec-13 09:29N 53°21' W 002°54'0 0.0
2017-Dec-13 08:59N 53°21' W 002°54'0 0.0
2017-Dec-13 08:29N 53°21' W 002°54'0 0.0
2017-Dec-13 07:59N 53°21' W 002°54'0 0.0
2017-Dec-13 07:29N 53°21' W 002°54'0 0.0
2017-Dec-13 06:59N 53°21' W 002°54'0 0.0
2017-Dec-13 06:20N 53°21' W 002°54'0 0.0
2017-Dec-13 05:59N 53°21' W 002°54'0 0.0
2017-Dec-13 05:29N 53°21' W 002°54'0 0.0
2017-Dec-13 04:59N 53°21' W 002°54'0 0.0
2017-Dec-13 04:26N 53°21' W 002°54'0 0.0
2017-Dec-13 03:59N 53°21' W 002°54'0 0.0
2017-Dec-13 03:29N 53°21' W 002°54'0 0.0
2017-Dec-13 02:59N 53°21' W 002°54'0 0.0
2017-Dec-13 02:29N 53°21' W 002°54'0 0.0
2017-Dec-13 01:59N 53°21' W 002°54'0 0.0
2017-Dec-13 01:29N 53°21' W 002°54'0 0.0
2017-Dec-13 00:59N 53°21' W 002°54'0 0.0
2017-Dec-13 00:29N 53°21' W 002°54'0 0.0
2017-Dec-12 23:59N 53°21' W 002°54'0 0.0
2017-Dec-12 23:26N 53°21' W 002°54'0 0.0
2017-Dec-12 22:56N 53°21' W 002°54'0 0.0
2017-Dec-12 22:29N 53°21' W 002°54'0 0.0
2017-Dec-12 21:59N 53°21' W 002°54'0 0.0
2017-Dec-12 21:29N 53°21' W 002°54'0 0.0
2017-Dec-12 20:59N 53°21' W 002°54'0 0.0
2017-Dec-12 20:29N 53°21' W 002°54'0 0.0
2017-Dec-12 19:59N 53°21' W 002°54'0 0.0
2017-Dec-12 19:29N 53°21' W 002°54'0 0.0
2017-Dec-12 18:59N 53°21' W 002°54'0 0.0
2017-Dec-12 18:29N 53°21' W 002°54'0 0.0
2017-Dec-12 17:59N 53°21' W 002°54'0 0.0
2017-Dec-12 17:29N 53°21' W 002°54'0 0.0
2017-Dec-12 16:56N 53°21' W 002°54'0 0.0
2017-Dec-12 16:29N 53°21' W 002°54'0 0.0
2017-Dec-12 15:56N 53°21' W 002°54'0 0.0
2017-Dec-12 15:26N 53°21' W 002°54'0 0.0
2017-Dec-12 14:59N 53°21' W 002°54'0 0.0
2017-Dec-12 14:26N 53°21' W 002°54'0 0.0
2017-Dec-12 13:53N 53°21' W 002°54'0 0.0
2017-Dec-12 13:29N 53°21' W 002°54'0 0.0
2017-Dec-12 12:59N 53°21' W 002°54'0 0.0
2017-Dec-12 12:17N 53°21' W 002°54'0 0.0
2017-Dec-12 11:53N 53°21' W 002°54'0 0.0
2017-Dec-12 11:29N 53°21' W 002°54'0 0.0
2017-Dec-12 10:38N 53°21' W 002°54'0 0.0
2017-Dec-12 10:29N 53°21' W 002°54'0 0.0
2017-Dec-12 09:56N 53°21' W 002°54'0 0.0
2017-Dec-12 09:23N 53°21' W 002°54'0 0.0
2017-Dec-12 08:56N 53°21' W 002°54'0 0.0
2017-Dec-12 08:17N 53°21' W 002°54'0 0.0
2017-Dec-12 07:56N 53°21' W 002°54'0 0.0
2017-Dec-12 07:26N 53°21' W 002°54'0 0.0
2017-Dec-12 06:59N 53°21' W 002°54'0 0.0
2017-Dec-12 06:29N 53°21' W 002°54'0 0.0
2017-Dec-12 05:59N 53°21' W 002°54'0 0.0
2017-Dec-12 05:29N 53°21' W 002°54'0 0.0
2017-Dec-12 04:59N 53°21' W 002°54'0 0.0
2017-Dec-12 04:26N 53°21' W 002°54'0 0.0
2017-Dec-12 03:59N 53°21' W 002°54'0 0.0
2017-Dec-12 03:29N 53°21' W 002°54'0 0.0
2017-Dec-12 02:59N 53°21' W 002°54'0 0.0
2017-Dec-12 02:29N 53°21' W 002°54'0 0.0
2017-Dec-12 01:59N 53°21' W 002°54'0 0.0
2017-Dec-12 01:29N 53°21' W 002°54'0 0.0
2017-Dec-12 00:59N 53°21' W 002°54'0 0.0
2017-Dec-12 00:26N 53°21' W 002°54'0 0.0
2017-Dec-11 23:59N 53°21' W 002°54'0 0.0
2017-Dec-11 23:26N 53°21' W 002°54'0 0.0
2017-Dec-11 22:59N 53°21' W 002°54'0 0.0
2017-Dec-11 22:29N 53°21' W 002°54'0 0.0
2017-Dec-11 21:44N 53°21' W 002°54'0 0.0
2017-Dec-11 21:29N 53°21' W 002°54'0 0.0
2017-Dec-11 20:56N 53°21' W 002°54'0 0.0
2017-Dec-11 20:20N 53°21' W 002°54'0 0.0
2017-Dec-11 19:56N 53°21' W 002°54'0 0.0
2017-Dec-11 19:26N 53°21' W 002°54'0 0.0
2017-Dec-11 18:56N 53°21' W 002°54'0 0.0
2017-Dec-11 18:30N 53°21' W 002°54'0 0.4
2017-Dec-11 18:00N 53°21' W 002°55'2 4.9
2017-Dec-11 17:30N 53°22' W 002°58'611.6
2017-Dec-11 17:00N 53°27' W 003°03'611.6
2017-Dec-11 16:30N 53°32' W 003°09'611.6
2017-Dec-11 16:00N 53°31' W 003°19'4 7.8
2017-Dec-11 15:30N 53°29' W 003°24'0 0.1
2017-Dec-11 15:00N 53°29' W 003°24'0 0.0
2017-Dec-11 14:30N 53°29' W 003°24'0 0.0
2017-Dec-11 14:00N 53°29' W 003°24'0 0.0
2017-Dec-11 13:30N 53°29' W 003°24'0 0.1
2017-Dec-11 13:00N 53°29' W 003°24'0 0.0
2017-Dec-11 12:30N 53°29' W 003°24'0 0.1
2017-Dec-11 12:00N 53°29' W 003°24'0 0.1
2017-Dec-11 11:30N 53°29' W 003°24'0 0.0
2017-Dec-11 11:00N 53°29' W 003°24'0 0.0
2017-Dec-11 10:30N 53°29' W 003°24'0 0.0
2017-Dec-11 10:00N 53°29' W 003°24'0 0.0
2017-Dec-11 09:30N 53°29' W 003°24'0 0.0
2017-Dec-11 08:57N 53°29' W 003°24'0 0.0
2017-Dec-11 08:30N 53°29' W 003°24'0 0.0
2017-Dec-11 08:00N 53°29' W 003°24'0 0.0
2017-Dec-11 07:30N 53°29' W 003°24'0 0.0
2017-Dec-11 07:00N 53°29' W 003°24'0 0.1
2017-Dec-11 06:27N 53°29' W 003°24'0 0.0
2017-Dec-11 06:00N 53°28' W 003°24'0 0.1
2017-Dec-11 05:27N 53°29' W 003°24'0 0.1
2017-Dec-11 05:00N 53°29' W 003°24'0 0.0
2017-Dec-11 04:30N 53°29' W 003°24'0 0.1
2017-Dec-11 04:00N 53°29' W 003°24'0 0.0
2017-Dec-11 03:30N 53°29' W 003°24'1 1.9
2017-Dec-11 03:00N 53°29' W 003°23'3 5.7
2017-Dec-11 02:30N 53°31' W 003°27'510.1
2017-Dec-11 02:00N 53°31' W 003°35'510.4
2017-Dec-11 01:30N 53°30' W 003°44'  
2017-Dec-07 07:54N 39°10' W 009°51'411.1
2017-Dec-07 07:30N 39°06' W 009°51'510.9
2017-Dec-07 07:00N 39°00' W 009°51'510.9
2017-Dec-07 06:30N 38°55' W 009°51'611.1
2017-Dec-07 06:00N 38°49' W 009°51'611.4
2017-Dec-07 05:30N 38°44' W 009°50'611.7
2017-Dec-07 05:00N 38°38' W 009°49'611.6
2017-Dec-07 04:30N 38°32' W 009°47'611.4
2017-Dec-07 04:00N 38°27' W 009°45'611.3
2017-Dec-07 03:30N 38°21' W 009°44'2211.4
2017-Dec-07 01:37N 38°00' W 009°38'  
Track history (hours):
 
Tides and Currents Weather Stations Pressure Air Temp Water Temp Dewpoint Dewpoint Depression Visibility Wind Speed Wind Dir Waves Ship Positions

Arklow Freedom

Last reported at 2017-Dec-16 15:49 UTC. Time now 2017-Dec-18 11:18 UTC.
Position N 56°28' W 005°38'.

Length 90 m; draft 6.4 m.

Type: Cargo ship. MMSI: 250001396.

Date/timePositionNaut miles runAvg speedWind from/ knotsBaromVisibWave heightAir tempDewpointWater temp
2017-Dec-16 15:49N 56°28' W 005°38'4311.1
2017-Dec-16 11:55N 55°47' W 006°03'511.4
2017-Dec-16 11:30N 55°43' W 005°58'611.3
2017-Dec-16 11:00N 55°37' W 005°56'611.4
2017-Dec-16 10:30N 55°32' W 005°55'510.8
2017-Dec-16 10:00N 55°26' W 005°54'5 9.9
2017-Dec-16 09:30N 55°21' W 005°53'4 8.6
2017-Dec-16 09:00N 55°17' W 005°53'4 7.6
2017-Dec-16 08:30N 55°14' W 005°50'4 7.7
2017-Dec-16 07:59N 55°10' W 005°47'20 8.4
2017-Dec-16 05:34N 54°51' W 005°33'0 9.3
2017-Dec-16 05:30N 54°51' W 005°32'5 9.5
2017-Dec-16 05:00N 54°46' W 005°29'5 9.7
2017-Dec-16 04:30N 54°42' W 005°26'510.3
2017-Dec-16 04:00N 54°37' W 005°22'510.7
2017-Dec-16 03:30N 54°32' W 005°20'511.0
2017-Dec-16 03:00N 54°27' W 005°20'611.1
2017-Dec-16 02:30N 54°21' W 005°22'611.0
2017-Dec-16 02:00N 54°16' W 005°25'510.8
2017-Dec-16 01:30N 54°11' W 005°28'510.7
2017-Dec-16 01:00N 54°06' W 005°32'69 1.5
2017-Dec-14 02:23N 53°23' W 003°59'3 6.6
2017-Dec-14 02:00N 53°23' W 003°55'3 5.7
2017-Dec-14 01:30N 53°24' W 003°50'3 5.6
2017-Dec-14 01:00N 53°24' W 003°46'3 5.6
2017-Dec-14 00:30N 53°24' W 003°41'3 5.4
2017-Dec-14 00:00N 53°24' W 003°37'3 6.0
2017-Dec-13 23:30N 53°25' W 003°32'4 7.6
2017-Dec-13 23:00N 53°27' W 003°26'4 8.4
2017-Dec-13 22:30N 53°31' W 003°22'4 7.5
2017-Dec-13 22:00N 53°31' W 003°16'4 7.5
2017-Dec-13 21:30N 53°32' W 003°10'5 9.3
2017-Dec-13 21:00N 53°29' W 003°04'511.0
2017-Dec-13 20:30N 53°24' W 002°60'4 8.5
2017-Dec-13 19:59N 53°21' W 002°54'0 0.3
2017-Dec-13 19:29N 53°21' W 002°54'0 0.0
2017-Dec-13 18:59N 53°21' W 002°54'0 0.0
2017-Dec-13 18:29N 53°21' W 002°54'0 0.0
2017-Dec-13 17:59N 53°21' W 002°54'0 0.0
2017-Dec-13 17:23N 53°21' W 002°54'0 0.0
2017-Dec-13 16:56N 53°21' W 002°54'0 0.0
2017-Dec-13 16:26N 53°21' W 002°54'0 0.0
2017-Dec-13 15:59N 53°21' W 002°54'0 0.0
2017-Dec-13 15:29N 53°21' W 002°54'0 0.0
2017-Dec-13 14:59N 53°21' W 002°54'0 0.0
2017-Dec-13 14:26N 53°21' W 002°54'0 0.0
2017-Dec-13 13:59N 53°21' W 002°54'0 0.0
2017-Dec-13 13:29N 53°21' W 002°54'0 0.0
2017-Dec-13 12:59N 53°21' W 002°54'0 0.0
2017-Dec-13 12:23N 53°21' W 002°54'0 0.0
2017-Dec-13 11:59N 53°21' W 002°54'0 0.0
2017-Dec-13 11:26N 53°21' W 002°54'0 0.0
2017-Dec-13 10:56N 53°21' W 002°54'0 0.0
2017-Dec-13 10:29N 53°21' W 002°54'0 0.0
2017-Dec-13 09:59N 53°21' W 002°54'0 0.0
2017-Dec-13 09:29N 53°21' W 002°54'0 0.0
2017-Dec-13 08:59N 53°21' W 002°54'0 0.0
2017-Dec-13 08:29N 53°21' W 002°54'0 0.0
2017-Dec-13 07:59N 53°21' W 002°54'0 0.0
2017-Dec-13 07:29N 53°21' W 002°54'0 0.0
2017-Dec-13 06:59N 53°21' W 002°54'0 0.0
2017-Dec-13 06:20N 53°21' W 002°54'0 0.0
2017-Dec-13 05:59N 53°21' W 002°54'0 0.0
2017-Dec-13 05:29N 53°21' W 002°54'0 0.0
2017-Dec-13 04:59N 53°21' W 002°54'0 0.0
2017-Dec-13 04:26N 53°21' W 002°54'0 0.0
2017-Dec-13 03:59N 53°21' W 002°54'0 0.0
2017-Dec-13 03:29N 53°21' W 002°54'0 0.0
2017-Dec-13 02:59N 53°21' W 002°54'0 0.0
2017-Dec-13 02:29N 53°21' W 002°54'0 0.0
2017-Dec-13 01:59N 53°21' W 002°54'0 0.0
2017-Dec-13 01:29N 53°21' W 002°54'0 0.0
2017-Dec-13 00:59N 53°21' W 002°54'0 0.0
2017-Dec-13 00:29N 53°21' W 002°54'0 0.0
2017-Dec-12 23:59N 53°21' W 002°54'0 0.0
2017-Dec-12 23:26N 53°21' W 002°54'0 0.0
2017-Dec-12 22:56N 53°21' W 002°54'0 0.0
2017-Dec-12 22:29N 53°21' W 002°54'0 0.0
2017-Dec-12 21:59N 53°21' W 002°54'0 0.0
2017-Dec-12 21:29N 53°21' W 002°54'0 0.0
2017-Dec-12 20:59N 53°21' W 002°54'0 0.0
2017-Dec-12 20:29N 53°21' W 002°54'0 0.0
2017-Dec-12 19:59N 53°21' W 002°54'0 0.0
2017-Dec-12 19:29N 53°21' W 002°54'0 0.0
2017-Dec-12 18:59N 53°21' W 002°54'0 0.0
2017-Dec-12 18:29N 53°21' W 002°54'0 0.0
2017-Dec-12 17:59N 53°21' W 002°54'0 0.0
2017-Dec-12 17:29N 53°21' W 002°54'0 0.0
2017-Dec-12 16:56N 53°21' W 002°54'0 0.0
2017-Dec-12 16:29N 53°21' W 002°54'0 0.0
2017-Dec-12 15:56N 53°21' W 002°54'0 0.0
2017-Dec-12 15:26N 53°21' W 002°54'0 0.0
2017-Dec-12 14:59N 53°21' W 002°54'0 0.0
2017-Dec-12 14:26N 53°21' W 002°54'0 0.0
2017-Dec-12 13:53N 53°21' W 002°54'0 0.0
2017-Dec-12 13:29N 53°21' W 002°54'0 0.0
2017-Dec-12 12:59N 53°21' W 002°54'0 0.0
2017-Dec-12 12:17N 53°21' W 002°54'0 0.0
2017-Dec-12 11:53N 53°21' W 002°54'0 0.0
2017-Dec-12 11:29N 53°21' W 002°54'0 0.0
2017-Dec-12 10:38N 53°21' W 002°54'0 0.0
2017-Dec-12 10:29N 53°21' W 002°54'0 0.0
2017-Dec-12 09:56N 53°21' W 002°54'0 0.0
2017-Dec-12 09:23N 53°21' W 002°54'0 0.0
2017-Dec-12 08:56N 53°21' W 002°54'0 0.0
2017-Dec-12 08:17N 53°21' W 002°54'0 0.0
2017-Dec-12 07:56N 53°21' W 002°54'0 0.0
2017-Dec-12 07:26N 53°21' W 002°54'0 0.0
2017-Dec-12 06:59N 53°21' W 002°54'0 0.0
2017-Dec-12 06:29N 53°21' W 002°54'0 0.0
2017-Dec-12 05:59N 53°21' W 002°54'0 0.0
2017-Dec-12 05:29N 53°21' W 002°54'0 0.0
2017-Dec-12 04:59N 53°21' W 002°54'0 0.0
2017-Dec-12 04:26N 53°21' W 002°54'0 0.0
2017-Dec-12 03:59N 53°21' W 002°54'0 0.0
2017-Dec-12 03:29N 53°21' W 002°54'0 0.0
2017-Dec-12 02:59N 53°21' W 002°54'0 0.0
2017-Dec-12 02:29N 53°21' W 002°54'0 0.0
2017-Dec-12 01:59N 53°21' W 002°54'0 0.0
2017-Dec-12 01:29N 53°21' W 002°54'0 0.0
2017-Dec-12 00:59N 53°21' W 002°54'0 0.0
2017-Dec-12 00:26N 53°21' W 002°54'0 0.0
2017-Dec-11 23:59N 53°21' W 002°54'0 0.0
2017-Dec-11 23:26N 53°21' W 002°54'0 0.0
2017-Dec-11 22:59N 53°21' W 002°54'0 0.0
2017-Dec-11 22:29N 53°21' W 002°54'0 0.0
2017-Dec-11 21:44N 53°21' W 002°54'0 0.0
2017-Dec-11 21:29N 53°21' W 002°54'0 0.0
2017-Dec-11 20:56N 53°21' W 002°54'0 0.0
2017-Dec-11 20:20N 53°21' W 002°54'0 0.0
2017-Dec-11 19:56N 53°21' W 002°54'0 0.0
2017-Dec-11 19:26N 53°21' W 002°54'0 0.0
2017-Dec-11 18:56N 53°21' W 002°54'0 0.0
2017-Dec-11 18:30N 53°21' W 002°54'0 0.4
2017-Dec-11 18:00N 53°21' W 002°55'2 4.9
2017-Dec-11 17:30N 53°22' W 002°58'611.6
2017-Dec-11 17:00N 53°27' W 003°03'611.6
2017-Dec-11 16:30N 53°32' W 003°09'611.6
2017-Dec-11 16:00N 53°31' W 003°19'4 7.8
2017-Dec-11 15:30N 53°29' W 003°24'0 0.1
2017-Dec-11 15:00N 53°29' W 003°24'0 0.0
2017-Dec-11 14:30N 53°29' W 003°24'0 0.0
2017-Dec-11 14:00N 53°29' W 003°24'0 0.0
2017-Dec-11 13:30N 53°29' W 003°24'0 0.1
2017-Dec-11 13:00N 53°29' W 003°24'0 0.0
2017-Dec-11 12:30N 53°29' W 003°24'0 0.1
2017-Dec-11 12:00N 53°29' W 003°24'0 0.1
2017-Dec-11 11:30N 53°29' W 003°24'0 0.0
2017-Dec-11 11:00N 53°29' W 003°24'0 0.0
2017-Dec-11 10:30N 53°29' W 003°24'0 0.0
2017-Dec-11 10:00N 53°29' W 003°24'0 0.0
2017-Dec-11 09:30N 53°29' W 003°24'0 0.0
2017-Dec-11 08:57N 53°29' W 003°24'0 0.0
2017-Dec-11 08:30N 53°29' W 003°24'0 0.0
2017-Dec-11 08:00N 53°29' W 003°24'0 0.0
2017-Dec-11 07:30N 53°29' W 003°24'0 0.0
2017-Dec-11 07:00N 53°29' W 003°24'0 0.1
2017-Dec-11 06:27N 53°29' W 003°24'0 0.0
2017-Dec-11 06:00N 53°28' W 003°24'0 0.1
2017-Dec-11 05:27N 53°29' W 003°24'0 0.1
2017-Dec-11 05:00N 53°29' W 003°24'0 0.0
2017-Dec-11 04:30N 53°29' W 003°24'0 0.1
2017-Dec-11 04:00N 53°29' W 003°24'0 0.0
2017-Dec-11 03:30N 53°29' W 003°24'1 1.9
2017-Dec-11 03:00N 53°29' W 003°23'3 5.7
2017-Dec-11 02:30N 53°31' W 003°27'510.1
2017-Dec-11 02:00N 53°31' W 003°35'510.4
2017-Dec-11 01:30N 53°30' W 003°44'  
2017-Dec-07 07:54N 39°10' W 009°51'411.1
2017-Dec-07 07:30N 39°06' W 009°51'510.9
2017-Dec-07 07:00N 39°00' W 009°51'510.9
2017-Dec-07 06:30N 38°55' W 009°51'611.1
2017-Dec-07 06:00N 38°49' W 009°51'611.4
2017-Dec-07 05:30N 38°44' W 009°50'611.7
2017-Dec-07 05:00N 38°38' W 009°49'611.6
2017-Dec-07 04:30N 38°32' W 009°47'611.4
2017-Dec-07 04:00N 38°27' W 009°45'611.3
2017-Dec-07 03:30N 38°21' W 009°44'2211.4
2017-Dec-07 01:37N 38°00' W 009°38'  

Dump ship's entire track history